createdAt,value
2018-03-27T00:00:07.160Z,209.73
2018-03-27T00:02:36.276Z,226.23
2018-03-27T00:05:05.198Z,210.13
2018-03-27T00:07:34.167Z,213.37
2018-03-27T00:10:03.128Z,193.47
2018-03-27T00:12:32.050Z,189.63
2018-03-27T00:15:01.004Z,190.33
2018-03-27T00:17:29.937Z,209.13
2018-03-27T00:19:58.905Z,192.63
2018-03-27T00:22:27.828Z,192.63
2018-03-27T00:24:56.777Z,186.43
2018-03-27T00:27:31.797Z,180.10
2018-03-27T00:30:06.552Z,178.87
2018-03-27T00:32:41.446Z,190.30
2018-03-27T00:35:16.206Z,188.57
2018-03-27T00:37:51.140Z,192.10
2018-03-27T00:40:25.996Z,192.50
2018-03-27T00:42:54.942Z,211.73
2018-03-27T00:45:23.880Z,206.40
2018-03-27T00:47:52.843Z,215.77
2018-03-27T00:50:21.768Z,216.63
2018-03-27T00:52:50.725Z,211.93
2018-03-27T00:55:19.648Z,201.90
2018-03-27T00:57:48.565Z,191.30
2018-03-27T01:00:17.505Z,180.27
2018-03-27T01:02:46.885Z,182.60
2018-03-27T01:05:15.801Z,182.00
2018-03-27T01:07:44.771Z,179.90
2018-03-27T01:10:13.697Z,192.83
2018-03-27T01:12:42.619Z,190.30
2018-03-27T01:15:11.562Z,194.13
2018-03-27T01:17:40.489Z,200.20
2018-03-27T01:20:09.448Z,196.90
2018-03-27T01:22:38.381Z,193.77
2018-03-27T01:25:07.342Z,198.10
2018-03-27T01:27:36.335Z,190.47
2018-03-27T01:30:05.253Z,183.80
2018-03-27T01:32:34.180Z,207.60
2018-03-27T01:35:03.146Z,203.47
2018-03-27T01:37:32.052Z,192.07
2018-03-27T01:40:00.989Z,190.40
2018-03-27T01:42:29.907Z,191.57
2018-03-27T01:44:58.864Z,169.57
2018-03-27T01:47:27.791Z,167.63
2018-03-27T01:49:56.720Z,160.17
2018-03-27T01:52:25.708Z,172.33
2018-03-27T01:54:54.636Z,181.20
2018-03-27T01:57:23.592Z,171.37
2018-03-27T01:59:52.584Z,179.70
2018-03-27T02:02:21.576Z,174.03
2018-03-27T02:04:50.522Z,171.03
2018-03-27T02:07:19.440Z,170.43
2018-03-27T02:09:48.423Z,174.20
2018-03-27T02:12:23.158Z,183.00
2018-03-27T02:14:57.884Z,188.07
2018-03-27T02:17:32.634Z,181.90
2018-03-27T02:20:07.463Z,180.63
2018-03-27T02:22:56.321Z,173.33
2018-03-27T02:25:25.276Z,182.47
2018-03-27T02:27:54.195Z,188.50
2018-03-27T02:30:23.328Z,186.47
2018-03-27T02:32:52.250Z,189.63
2018-03-27T02:35:21.185Z,188.77
2018-03-27T02:37:50.150Z,188.77
2018-03-27T02:40:19.077Z,185.10
2018-03-27T02:42:48.057Z,186.43
2018-03-27T02:45:16.982Z,178.67
2018-03-27T02:47:46.010Z,176.63
2018-03-27T02:50:15.136Z,186.57
2018-03-27T02:52:44.050Z,189.53
2018-03-27T02:55:12.978Z,186.50
2018-03-27T02:57:41.929Z,190.53
2018-03-27T03:00:10.862Z,187.37
2018-03-27T03:02:39.785Z,185.00
2018-03-27T03:05:08.747Z,180.20
2018-03-27T03:07:37.749Z,191.63
2018-03-27T03:10:06.701Z,186.17
2018-03-27T03:12:35.620Z,184.60
2018-03-27T03:15:04.545Z,189.53
2018-03-27T03:17:33.508Z,189.83
2018-03-27T03:20:02.431Z,185.73
2018-03-27T03:22:31.394Z,191.50
2018-03-27T03:25:00.325Z,192.33
2018-03-27T03:27:29.274Z,179.70
2018-03-27T03:29:58.298Z,196.17
2018-03-27T03:32:27.670Z,187.87
2018-03-27T03:34:56.684Z,192.33
2018-03-27T03:37:25.598Z,203.67
2018-03-27T03:39:54.553Z,209.03
2018-03-27T03:42:23.486Z,244.17
2018-03-27T03:44:52.747Z,254.47
2018-03-27T03:47:21.668Z,215.80
2018-03-27T03:49:50.603Z,201.57
2018-03-27T03:52:19.548Z,196.10
2018-03-27T03:54:48.480Z,199.00
2018-03-27T03:57:17.458Z,186.73
2018-03-27T03:59:46.558Z,192.53
2018-03-27T04:02:15.536Z,202.80
2018-03-27T04:04:44.599Z,197.97
2018-03-27T04:07:13.594Z,195.33
2018-03-27T04:09:42.567Z,205.10
2018-03-27T04:12:11.644Z,202.13
2018-03-27T04:14:40.590Z,211.20
2018-03-27T04:17:09.524Z,200.50
2018-03-27T04:19:38.492Z,199.07
2018-03-27T04:22:07.436Z,239.83
2018-03-27T04:24:36.459Z,246.57
2018-03-27T04:27:05.393Z,230.83
2018-03-27T04:29:34.418Z,204.37
2018-03-27T04:32:03.478Z,203.33
2018-03-27T04:34:32.437Z,204.70
2018-03-27T04:37:01.362Z,208.20
2018-03-27T04:39:30.361Z,200.00
2018-03-27T04:41:59.344Z,205.50
2018-03-27T04:44:28.347Z,198.03
2018-03-27T04:46:57.282Z,206.77
2018-03-27T04:49:26.264Z,213.87
2018-03-27T04:51:55.494Z,220.47
2018-03-27T04:54:24.458Z,227.67
2018-03-27T04:56:53.393Z,226.20
2018-03-27T04:59:22.372Z,232.93
2018-03-27T05:01:51.348Z,215.47
2018-03-27T05:04:20.321Z,214.23
2018-03-27T05:06:49.269Z,208.83
2018-03-27T05:09:18.234Z,213.83
2018-03-27T05:11:47.275Z,214.10
2018-03-27T05:14:16.199Z,214.63
2018-03-27T05:16:45.138Z,211.17
2018-03-27T05:19:14.134Z,204.83
2018-03-27T05:21:43.100Z,211.60
2018-03-27T05:24:12.040Z,210.10
2018-03-27T05:26:41.017Z,199.60
2018-03-27T05:29:11.732Z,198.17
2018-03-27T05:31:40.737Z,215.47
2018-03-27T05:34:09.667Z,207.60
2018-03-27T05:36:38.647Z,211.73
2018-03-27T05:39:07.609Z,205.90
2018-03-27T05:41:36.545Z,204.67
2018-03-27T05:44:05.520Z,213.23
2018-03-27T05:46:34.796Z,225.73
2018-03-27T05:49:03.732Z,235.47
2018-03-27T05:51:32.798Z,228.43
2018-03-27T05:54:01.737Z,250.63
2018-03-27T05:56:30.706Z,281.23
2018-03-27T05:58:59.656Z,306.43
2018-03-27T06:01:28.626Z,323.07
2018-03-27T06:03:57.563Z,322.33
2018-03-27T06:06:26.521Z,306.27
2018-03-27T06:08:55.512Z,278.50
2018-03-27T06:11:24.453Z,258.00
2018-03-27T06:13:53.434Z,243.00
2018-03-27T06:16:22.358Z,235.27
2018-03-27T06:18:51.684Z,246.67
2018-03-27T06:21:20.682Z,237.43
2018-03-27T06:23:49.617Z,232.77
2018-03-27T06:26:18.594Z,240.53
2018-03-27T06:28:47.561Z,233.47
2018-03-27T06:31:16.484Z,221.03
2018-03-27T06:33:45.450Z,224.47
2018-03-27T06:36:14.537Z,226.37
2018-03-27T06:38:43.538Z,220.03
2018-03-27T06:41:12.487Z,229.60
2018-03-27T06:43:41.423Z,217.97
2018-03-27T06:46:10.372Z,216.37
2018-03-27T06:48:39.376Z,216.17
2018-03-27T06:51:08.324Z,220.30
2018-03-27T06:53:37.259Z,220.97
2018-03-27T06:56:06.234Z,214.93
2018-03-27T06:58:35.171Z,217.73
2018-03-27T07:01:04.134Z,229.47
2018-03-27T07:03:33.077Z,223.17
2018-03-27T07:06:02.084Z,221.27
2018-03-27T07:08:31.044Z,229.77
2018-03-27T07:11:00.029Z,231.40
2018-03-27T07:13:29.117Z,244.60
2018-03-27T07:15:58.130Z,237.30
2018-03-27T07:18:27.135Z,232.70
2018-03-27T07:20:56.128Z,227.00
2018-03-27T07:23:25.074Z,220.80
2018-03-27T07:25:54.175Z,227.80
2018-03-27T07:28:23.136Z,224.47
2018-03-27T07:31:05.720Z,225.20
2018-03-27T07:36:14.683Z,232.33
2018-03-27T07:38:43.616Z,221.37
2018-03-27T07:41:12.614Z,219.07
2018-03-27T07:43:41.546Z,218.17
2018-03-27T07:46:10.468Z,224.07
2018-03-27T07:48:39.446Z,221.97
2018-03-27T07:51:08.422Z,226.53
2018-03-27T07:53:37.384Z,233.37
2018-03-27T07:56:07.148Z,229.07
2018-03-27T07:58:36.203Z,220.97
2018-03-27T08:01:05.198Z,213.70
2018-03-27T08:03:34.173Z,219.10
2018-03-27T08:06:03.249Z,204.70
2018-03-27T08:08:32.218Z,204.70
2018-03-27T08:11:01.172Z,180.30
2018-03-27T08:13:30.141Z,179.97
2018-03-27T08:15:59.065Z,132.37
2018-03-27T08:18:28.053Z,137.30
2018-03-27T08:20:57.077Z,128.90
2018-03-27T08:23:26.003Z,98.20
2018-03-27T08:25:54.971Z,66.13
2018-03-27T08:28:23.901Z,59.43
2018-03-27T08:30:52.818Z,47.63
2018-03-27T08:33:21.905Z,47.47
2018-03-27T08:35:50.839Z,41.40
2018-03-27T08:38:19.758Z,39.57
2018-03-27T08:40:48.714Z,49.03
2018-03-27T08:43:17.698Z,44.00
2018-03-27T08:45:46.619Z,35.10
2018-03-27T08:48:15.576Z,32.13
2018-03-27T08:50:44.515Z,37.17
2018-03-27T08:53:13.472Z,44.40
2018-03-27T08:55:42.397Z,46.63
2018-03-27T08:58:11.339Z,45.97
2018-03-27T09:00:40.259Z,49.37
2018-03-27T09:03:09.214Z,56.00
2018-03-27T09:05:38.382Z,49.03
2018-03-27T09:08:07.304Z,52.50
2018-03-27T09:10:36.267Z,53.20
2018-03-27T09:13:05.193Z,58.07
2018-03-27T09:15:34.123Z,61.30
2018-03-27T09:18:03.092Z,54.10
2018-03-27T09:20:32.034Z,65.77
2018-03-27T09:23:01.019Z,66.17
2018-03-27T09:25:29.947Z,59.60
2018-03-27T09:27:58.887Z,54.57
2018-03-27T09:30:27.841Z,56.47
2018-03-27T09:32:56.761Z,54.23
2018-03-27T09:35:26.312Z,52.20
2018-03-27T09:37:55.255Z,52.80
2018-03-27T09:40:24.187Z,53.20
2018-03-27T09:42:53.144Z,54.17
2018-03-27T09:45:22.129Z,57.33
2018-03-27T09:47:51.093Z,63.83
2018-03-27T09:50:20.025Z,58.40
2018-03-27T09:52:48.957Z,61.00
2018-03-27T09:55:17.927Z,60.20
2018-03-27T09:57:46.866Z,64.57
2018-03-27T10:00:15.789Z,53.67
2018-03-27T10:02:44.746Z,59.23
2018-03-27T10:05:13.677Z,66.77
2018-03-27T10:07:42.603Z,61.73
2018-03-27T10:10:11.570Z,65.93
2018-03-27T10:12:40.553Z,69.03
2018-03-27T10:15:09.562Z,57.37
2018-03-27T10:17:38.560Z,64.33
2018-03-27T10:20:07.501Z,66.20
2018-03-27T10:22:37.190Z,70.03
2018-03-27T10:25:07.377Z,77.37
2018-03-27T10:27:36.333Z,63.63
2018-03-27T10:30:05.482Z,72.10
2018-03-27T10:32:34.424Z,75.70
2018-03-27T10:35:03.375Z,82.50
2018-03-27T10:37:32.322Z,91.13
2018-03-27T10:40:01.257Z,85.00
2018-03-27T10:42:30.225Z,89.30
2018-03-27T10:44:59.133Z,90.40
2018-03-27T10:47:28.057Z,78.10
2018-03-27T10:49:57.027Z,75.87
2018-03-27T10:52:25.980Z,68.70
2018-03-27T10:54:54.912Z,61.53
2018-03-27T10:57:23.963Z,64.63
2018-03-27T10:59:52.926Z,67.20
2018-03-27T11:02:21.854Z,65.60
2018-03-27T11:04:50.811Z,65.30
2018-03-27T11:07:19.768Z,68.67
2018-03-27T11:09:48.695Z,46.60
2018-03-27T11:12:17.641Z,67.93
2018-03-27T11:14:46.594Z,62.13
2018-03-27T11:17:15.578Z,65.00
2018-03-27T11:19:44.496Z,67.93
2018-03-27T11:22:13.454Z,72.07
2018-03-27T11:24:42.373Z,67.73
2018-03-27T11:27:11.329Z,75.07
2018-03-27T11:29:40.257Z,78.77
2018-03-27T11:32:09.184Z,60.27
2018-03-27T11:34:38.146Z,62.90
2018-03-27T11:37:07.344Z,65.83
2018-03-27T11:39:36.326Z,59.17
2018-03-27T11:42:05.266Z,56.97
2018-03-27T11:44:34.196Z,60.53
2018-03-27T11:47:03.164Z,61.00
2018-03-27T11:49:32.089Z,65.23
2018-03-27T11:52:01.067Z,65.23
2018-03-27T11:54:30.003Z,63.50
2018-03-27T11:56:58.960Z,66.60
2018-03-27T11:59:27.888Z,72.43
2018-03-27T12:01:56.882Z,75.37
2018-03-27T12:04:25.845Z,79.07
2018-03-27T12:06:54.763Z,89.03
2018-03-27T12:09:23.728Z,80.80
2018-03-27T12:11:52.650Z,86.97
2018-03-27T12:14:21.639Z,85.47
2018-03-27T12:16:50.563Z,78.20
2018-03-27T12:19:20.479Z,79.47
2018-03-27T12:21:49.403Z,83.63
2018-03-27T12:24:18.370Z,79.67
2018-03-27T12:26:47.297Z,89.73
2018-03-27T12:29:16.245Z,81.57
2018-03-27T12:31:45.316Z,70.33
2018-03-27T12:34:14.246Z,68.67
2018-03-27T12:36:43.198Z,70.63
2018-03-27T12:39:12.149Z,70.60
2018-03-27T12:41:41.127Z,74.60
2018-03-27T12:44:10.043Z,57.03
2018-03-27T12:46:38.963Z,59.17
2018-03-27T12:49:07.924Z,53.20
2018-03-27T12:51:36.883Z,40.47
2018-03-27T12:54:05.837Z,42.20
2018-03-27T12:56:34.760Z,44.40
2018-03-27T12:59:03.789Z,41.07
2018-03-27T13:01:32.750Z,45.23
2018-03-27T13:04:01.744Z,43.07
2018-03-27T13:06:30.670Z,42.40
2018-03-27T13:08:59.745Z,43.10
2018-03-27T13:11:28.721Z,46.07
2018-03-27T13:13:57.649Z,51.93
2018-03-27T13:16:26.599Z,45.73
2018-03-27T13:18:55.515Z,38.90
2018-03-27T13:21:24.465Z,40.63
2018-03-27T13:23:53.414Z,39.87
2018-03-27T13:26:22.353Z,37.47
2018-03-27T13:28:51.272Z,40.43
2018-03-27T13:31:20.233Z,41.73
2018-03-27T13:33:49.155Z,36.80
2018-03-27T13:36:18.136Z,33.57
2018-03-27T13:38:47.062Z,29.93
2018-03-27T13:41:15.969Z,32.27
2018-03-27T13:43:45.141Z,32.00
2018-03-27T13:46:14.233Z,33.77
2018-03-27T13:48:43.185Z,31.43
2018-03-27T13:51:12.143Z,31.27
2018-03-27T13:53:41.063Z,32.87
2018-03-27T13:56:10.005Z,33.50
2018-03-27T13:58:38.980Z,33.87
2018-03-27T14:01:07.922Z,27.63
2018-03-27T14:03:36.854Z,30.23
2018-03-27T14:06:05.801Z,26.73
2018-03-27T14:08:34.750Z,28.03
2018-03-27T14:11:03.685Z,26.03
2018-03-27T14:13:32.646Z,25.07
2018-03-27T14:16:01.563Z,23.90
2018-03-27T14:18:30.876Z,25.87
2018-03-27T14:20:59.781Z,23.37
2018-03-27T14:23:29.008Z,26.33
2018-03-27T14:25:57.963Z,24.17
2018-03-27T14:28:26.880Z,25.00
2018-03-27T14:30:56.761Z,30.27
2018-03-27T14:33:25.671Z,28.83
2018-03-27T14:35:54.608Z,30.90
2018-03-27T14:38:23.592Z,32.50
2018-03-27T14:40:52.500Z,32.60
2018-03-27T14:43:21.420Z,32.03
2018-03-27T14:45:50.371Z,31.53
2018-03-27T14:48:19.310Z,32.87
2018-03-27T14:50:48.292Z,34.63
2018-03-27T14:53:17.215Z,33.17
2018-03-27T14:55:46.122Z,34.43
2018-03-27T14:58:15.079Z,33.00
2018-03-27T15:00:43.993Z,31.53
2018-03-27T15:03:12.946Z,30.83
2018-03-27T15:05:41.941Z,33.50
2018-03-27T15:08:10.871Z,34.17
2018-03-27T15:10:39.785Z,32.73
2018-03-27T15:13:08.802Z,31.87
2018-03-27T15:15:37.747Z,35.13
2018-03-27T15:18:06.672Z,34.23
2018-03-27T15:20:35.747Z,35.60
2018-03-27T15:23:05.925Z,40.00
2018-03-27T15:25:34.899Z,36.17
2018-03-27T15:28:03.835Z,39.47
2018-03-27T15:30:32.798Z,38.80
2018-03-27T15:33:01.760Z,38.70
2018-03-27T15:35:30.718Z,27.93
2018-03-27T15:37:59.665Z,28.57
2018-03-27T15:40:29.610Z,29.27
2018-03-27T15:42:59.251Z,33.87
2018-03-27T15:45:28.204Z,36.53
2018-03-27T15:47:57.115Z,33.90
2018-03-27T15:50:26.058Z,28.43
2018-03-27T15:52:55.058Z,28.93
2018-03-27T15:55:23.980Z,27.83
2018-03-27T15:57:52.946Z,26.40
2018-03-27T16:00:22.010Z,30.30
2018-03-27T16:02:50.917Z,30.13
2018-03-27T16:05:19.848Z,29.40
2018-03-27T16:07:48.799Z,28.00
2018-03-27T16:10:17.856Z,31.00
2018-03-27T16:12:47.135Z,30.63
2018-03-27T16:15:16.264Z,34.07
2018-03-27T16:17:45.177Z,29.57
2018-03-27T16:20:14.112Z,29.57
2018-03-27T16:22:43.084Z,29.97
2018-03-27T16:25:12.012Z,29.67
2018-03-27T16:27:41.156Z,31.37
2018-03-27T16:30:10.163Z,33.77
2018-03-27T16:32:39.143Z,32.23
2018-03-27T16:35:08.093Z,32.40
2018-03-27T16:37:37.019Z,32.47
2018-03-27T16:40:06.011Z,34.50
2018-03-27T16:42:34.933Z,39.83
2018-03-27T16:45:03.872Z,37.40
2018-03-27T16:47:32.853Z,30.03
2018-03-27T16:50:01.777Z,32.00
2018-03-27T16:52:30.981Z,32.07
2018-03-27T16:54:59.976Z,29.87
2018-03-27T16:57:28.904Z,34.87
2018-03-27T16:59:57.819Z,34.30
2018-03-27T17:02:26.878Z,39.00
2018-03-27T17:04:55.810Z,39.80
2018-03-27T17:07:24.889Z,43.03
2018-03-27T17:09:53.858Z,43.97
2018-03-27T17:12:22.781Z,43.30
2018-03-27T17:14:51.736Z,47.03
2018-03-27T17:17:20.699Z,52.47
2018-03-27T17:19:50.131Z,55.17
2018-03-27T17:22:20.510Z,58.73
2018-03-27T17:24:49.490Z,60.27
2018-03-27T17:27:18.409Z,59.93
2018-03-27T17:29:47.340Z,62.27
2018-03-27T17:32:16.350Z,59.37
2018-03-27T17:34:45.351Z,59.93
2018-03-27T17:37:14.263Z,68.33
2018-03-27T17:39:43.253Z,70.53
2018-03-27T17:42:12.178Z,71.63
2018-03-27T17:44:41.134Z,65.77
2018-03-27T17:47:10.074Z,63.90
2018-03-27T17:49:39.025Z,71.73
2018-03-27T17:52:07.956Z,62.73
2018-03-27T17:54:36.919Z,70.50
2018-03-27T17:57:05.837Z,90.13
2018-03-27T17:59:34.826Z,91.37
2018-03-27T18:02:03.750Z,98.97
2018-03-27T18:04:32.680Z,101.73
2018-03-27T18:07:01.636Z,82.03
2018-03-27T18:09:30.570Z,66.13
2018-03-27T18:11:59.525Z,67.47
2018-03-27T18:14:28.582Z,64.73
2018-03-27T18:16:57.593Z,58.60
2018-03-27T18:19:26.544Z,62.67
2018-03-27T18:21:55.457Z,62.17
2018-03-27T18:24:24.410Z,67.73
2018-03-27T18:26:53.434Z,66.50
2018-03-27T18:29:22.360Z,68.57
2018-03-27T18:31:51.293Z,63.47
2018-03-27T18:34:20.245Z,63.57
2018-03-27T18:36:49.183Z,52.73
2018-03-27T18:39:18.131Z,52.07
2018-03-27T18:41:47.079Z,55.63
2018-03-27T18:44:16.120Z,56.73
2018-03-27T18:46:45.130Z,52.13
2018-03-27T18:49:14.355Z,57.97
2018-03-27T18:51:43.382Z,58.03
2018-03-27T18:54:12.742Z,62.43
2018-03-27T18:56:41.879Z,58.03
2018-03-27T18:59:10.808Z,62.27
2018-03-27T19:01:39.847Z,64.43
2018-03-27T19:04:08.828Z,61.43
2018-03-27T19:06:37.781Z,63.00
2018-03-27T19:09:06.752Z,64.37
2018-03-27T19:11:35.687Z,75.17
2018-03-27T19:14:04.840Z,93.17
2018-03-27T19:16:33.913Z,89.87
2018-03-27T19:19:02.895Z,86.17
2018-03-27T19:21:31.897Z,85.57
2018-03-27T19:24:01.072Z,99.87
2018-03-27T19:26:30.079Z,68.13
2018-03-27T19:28:59.205Z,61.53
2018-03-27T19:31:28.312Z,77.40
2018-03-27T19:33:57.359Z,72.10
2018-03-27T19:36:26.448Z,74.47
2018-03-27T19:38:55.381Z,57.13
2018-03-27T19:41:24.368Z,60.97
2018-03-27T19:43:53.297Z,60.30
2018-03-27T19:46:22.248Z,59.60
2018-03-27T19:48:51.205Z,59.30
2018-03-27T19:51:20.144Z,59.40
2018-03-27T19:53:49.826Z,61.13
2018-03-27T19:56:18.777Z,67.33
2018-03-27T19:58:47.789Z,65.27
2018-03-27T20:01:16.750Z,65.33
2018-03-27T20:03:45.719Z,63.10
2018-03-27T20:06:14.649Z,59.53
2018-03-27T20:08:43.631Z,63.00
2018-03-27T20:11:12.609Z,70.80
2018-03-27T20:13:41.594Z,60.70
2018-03-27T20:16:10.610Z,56.50
2018-03-27T20:18:39.565Z,59.53
2018-03-27T20:21:08.496Z,61.07
2018-03-27T20:26:15.957Z,72.70
2018-03-27T20:28:46.248Z,75.90
2018-03-27T20:31:15.224Z,86.07
2018-03-27T20:33:44.178Z,82.60
2018-03-27T20:36:13.184Z,75.00
2018-03-27T20:38:42.133Z,62.67
2018-03-27T20:41:11.208Z,65.60
2018-03-27T20:43:40.310Z,51.50
2018-03-27T20:46:09.255Z,56.57
2018-03-27T20:48:38.200Z,48.80
2018-03-27T20:51:07.145Z,49.60
2018-03-27T20:53:36.326Z,65.33
2018-03-27T20:56:05.366Z,55.37
2018-03-27T20:58:34.291Z,56.63
2018-03-27T21:01:03.285Z,55.10
2018-03-27T21:03:32.214Z,51.27
2018-03-27T21:06:01.158Z,53.23
2018-03-27T21:08:30.077Z,55.47
2018-03-27T21:10:59.040Z,52.47
2018-03-27T21:13:27.968Z,54.60
2018-03-27T21:15:56.963Z,52.97
2018-03-27T21:18:25.990Z,50.93
2018-03-27T21:20:55.001Z,60.87
2018-03-27T21:23:23.982Z,56.70
2018-03-27T21:25:52.909Z,52.87
2018-03-27T21:28:21.874Z,62.30
2018-03-27T21:30:50.857Z,55.03
2018-03-27T21:33:19.815Z,62.70
2018-03-27T21:35:48.914Z,67.10
2018-03-27T21:38:17.831Z,62.30
2018-03-27T21:40:46.778Z,63.07
2018-03-27T21:43:15.742Z,58.57
2018-03-27T21:45:44.706Z,59.63
2018-03-27T21:48:13.674Z,56.97
2018-03-27T21:50:42.592Z,51.67
2018-03-27T21:53:11.564Z,56.50
2018-03-27T21:55:40.481Z,47.20
2018-03-27T21:58:09.457Z,49.33
2018-03-27T22:00:38.389Z,51.50
2018-03-27T22:03:07.306Z,49.03
2018-03-27T22:05:36.292Z,47.90
2018-03-27T22:08:05.200Z,49.27
2018-03-27T22:10:34.146Z,53.97
2018-03-27T22:13:03.131Z,55.73
2018-03-27T22:15:32.055Z,53.17
2018-03-27T22:18:01.012Z,53.67
2018-03-27T22:20:30.007Z,53.90
2018-03-27T22:22:58.946Z,55.20
2018-03-27T22:25:28.096Z,57.87
2018-03-27T22:27:57.021Z,66.93
2018-03-27T22:30:26.050Z,72.03
2018-03-27T22:32:55.003Z,64.23
2018-03-27T22:35:23.933Z,77.17
2018-03-27T22:37:52.896Z,79.43
2018-03-27T22:40:21.818Z,59.30
2018-03-27T22:42:50.773Z,66.13
2018-03-27T22:45:19.699Z,67.43
2018-03-27T22:47:48.620Z,71.57
2018-03-27T22:50:17.645Z,110.00
2018-03-27T22:52:46.582Z,104.00
2018-03-27T22:55:15.512Z,129.77
2018-03-27T22:57:44.460Z,153.93
2018-03-27T23:00:13.385Z,140.33
2018-03-27T23:02:43.016Z,133.67
2018-03-27T23:05:11.951Z,116.97
2018-03-27T23:07:41.151Z,108.70
2018-03-27T23:10:10.064Z,114.23
2018-03-27T23:12:39.038Z,133.93
2018-03-27T23:15:08.456Z,138.07
2018-03-27T23:17:37.393Z,142.13
2018-03-27T23:20:06.314Z,135.97
2018-03-27T23:22:35.264Z,130.13
2018-03-27T23:25:04.232Z,135.20
2018-03-27T23:27:33.203Z,130.87
2018-03-27T23:30:02.159Z,118.63
2018-03-27T23:32:31.120Z,110.87
2018-03-27T23:35:00.028Z,97.37
2018-03-27T23:37:29.879Z,94.67
2018-03-27T23:39:58.792Z,94.20
2018-03-27T23:42:27.738Z,104.97
2018-03-27T23:44:57.830Z,104.77
2018-03-27T23:47:26.797Z,110.00
2018-03-27T23:49:55.732Z,106.43
2018-03-27T23:52:24.684Z,90.17
2018-03-27T23:54:53.793Z,97.67
2018-03-27T23:57:22.728Z,108.43
2018-03-27T23:59:51.678Z,102.80
